sensor_id;sensor_type;location;lat;lon;timestamp;pressure;altitude;pressure_sealevel;temperature;humidity
39491;BME280;25175;50.140;18.990;2023-03-18T00:02:00;98723.97;;;2.92;45.21
39491;BME280;25175;50.140;18.990;2023-03-18T00:05:09;98724.19;;;2.99;45.52
39491;BME280;25175;50.140;18.990;2023-03-18T00:08:15;98710.25;;;3.00;45.13
39491;BME280;25175;50.140;18.990;2023-03-18T00:11:21;98713.03;;;3.06;45.36
39491;BME280;25175;50.140;18.990;2023-03-18T00:14:27;98710.94;;;3.10;45.14
39491;BME280;25175;50.140;18.990;2023-03-18T00:17:32;98675.50;;;2.85;45.27
39491;BME280;25175;50.140;18.990;2023-03-18T00:20:40;98715.47;;;3.08;44.89
39491;BME280;25175;50.140;18.990;2023-03-18T00:23:48;98718.53;;;3.03;45.36
39491;BME280;25175;50.140;18.990;2023-03-18T00:26:56;98725.94;;;2.98;45.29
39491;BME280;25175;50.140;18.990;2023-03-18T00:30:02;98709.41;;;2.91;45.57
39491;BME280;25175;50.140;18.990;2023-03-18T00:33:11;98712.13;;;2.90;45.55
39491;BME280;25175;50.140;18.990;2023-03-18T00:36:22;98714.06;;;2.88;45.76
39491;BME280;25175;50.140;18.990;2023-03-18T00:39:27;98704.50;;;2.88;45.45
39491;BME280;25175;50.140;18.990;2023-03-18T00:42:35;98694.63;;;2.84;45.54
39491;BME280;25175;50.140;18.990;2023-03-18T00:45:49;98528.28;;;1.80;45.66
39491;BME280;25175;50.140;18.990;2023-03-18T00:48:56;98655.63;;;2.60;45.99
39491;BME280;25175;50.140;18.990;2023-03-18T00:52:06;98674.00;;;2.74;45.97
39491;BME280;25175;50.140;18.990;2023-03-18T00:55:11;98673.03;;;2.75;45.81
39491;BME280;25175;50.140;18.990;2023-03-18T00:58:16;98672.66;;;2.62;45.94
39491;BME280;25175;50.140;18.990;2023-03-18T01:01:21;98678.84;;;2.77;45.81
39491;BME280;25175;50.140;18.990;2023-03-18T01:04:26;98680.50;;;2.78;45.81
39491;BME280;25175;50.140;18.990;2023-03-18T01:07:34;98669.97;;;2.80;45.73
39491;BME280;25175;50.140;18.990;2023-03-18T01:10:38;98665.47;;;2.82;45.59
39491;BME280;25175;50.140;18.990;2023-03-18T01:13:45;98628.06;;;2.59;45.72
39491;BME280;25175;50.140;18.990;2023-03-18T01:16:49;98660.38;;;2.72;45.57
39491;BME280;25175;50.140;18.990;2023-03-18T01:19:55;98650.84;;;2.73;45.79
39491;BME280;25175;50.140;18.990;2023-03-18T01:23:03;98654.41;;;2.72;45.87
39491;BME280;25175;50.140;18.990;2023-03-18T01:26:10;98648.72;;;2.68;45.83
39491;BME280;25175;50.140;18.990;2023-03-18T01:29:17;98649.00;;;2.65;45.89
39491;BME280;25175;50.140;18.990;2023-03-18T01:32:24;98645.91;;;2.62;46.10
39491;BME280;25175;50.140;18.990;2023-03-18T01:35:30;98650.88;;;2.55;46.13
39491;BME280;25175;50.140;18.990;2023-03-18T01:38:40;98645.34;;;2.50;45.98
39491;BME280;25175;50.140;18.990;2023-03-18T01:41:47;98651.34;;;2.51;46.11
39491;BME280;25175;50.140;18.990;2023-03-18T01:45:15;98657.97;;;2.45;46.27
39491;BME280;25175;50.140;18.990;2023-03-18T01:48:27;98651.47;;;2.41;46.27
39491;BME280;25175;50.140;18.990;2023-03-18T01:55:11;98632.13;;;2.28;46.84
39491;BME280;25175;50.140;18.990;2023-03-18T01:58:23;98623.03;;;2.24;46.76
39491;BME280;25175;50.140;18.990;2023-03-18T02:01:40;98628.53;;;2.21;46.91
39491;BME280;25175;50.140;18.990;2023-03-18T02:04:55;98633.63;;;2.13;47.09
39491;BME280;25175;50.140;18.990;2023-03-18T02:08:06;98636.53;;;2.10;47.20
39491;BME280;25175;50.140;18.990;2023-03-18T02:11:14;98605.34;;;1.94;47.20
39491;BME280;25175;50.140;18.990;2023-03-18T02:14:23;98649.38;;;2.02;47.42
39491;BME280;25175;50.140;18.990;2023-03-18T02:17:33;98641.03;;;2.08;47.49
39491;BME280;25175;50.140;18.990;2023-03-18T02:21:01;98631.50;;;2.08;47.43
39491;BME280;25175;50.140;18.990;2023-03-18T02:24:28;98635.56;;;2.11;47.23
39491;BME280;25175;50.140;18.990;2023-03-18T02:27:52;98615.75;;;2.02;47.39
39491;BME280;25175;50.140;18.990;2023-03-18T02:31:09;98641.38;;;2.13;47.11
39491;BME280;25175;50.140;18.990;2023-03-18T02:34:18;98640.06;;;2.09;47.09
39491;BME280;25175;50.140;18.990;2023-03-18T02:37:27;98634.44;;;2.13;47.04
39491;BME280;25175;50.140;18.990;2023-03-18T02:40:36;98634.75;;;2.10;47.08
39491;BME280;25175;50.140;18.990;2023-03-18T02:43:54;98631.66;;;2.07;47.26
39491;BME280;25175;50.140;18.990;2023-03-18T02:47:08;98627.06;;;2.01;47.32
39491;BME280;25175;50.140;18.990;2023-03-18T02:50:17;98638.06;;;2.03;47.28
39491;BME280;25175;50.140;18.990;2023-03-18T02:53:21;98458.25;;;0.95;47.02
39491;BME280;25175;50.140;18.990;2023-03-18T02:56:27;98617.38;;;2.03;47.44
39491;BME280;25175;50.140;18.990;2023-03-18T02:59:34;98633.22;;;2.00;47.22
39491;BME280;25175;50.140;18.990;2023-03-18T03:02:40;98632.25;;;2.01;47.32
39491;BME280;25175;50.140;18.990;2023-03-18T03:05:45;98630.47;;;2.01;47.42
39491;BME280;25175;50.140;18.990;2023-03-18T03:08:51;98637.41;;;2.01;47.44
39491;BME280;25175;50.140;18.990;2023-03-18T03:11:56;98639.50;;;1.97;47.39
39491;BME280;25175;50.140;18.990;2023-03-18T03:15:07;98633.31;;;1.90;47.56
39491;BME280;25175;50.140;18.990;2023-03-18T03:18:18;98629.31;;;1.78;47.75
39491;BME280;25175;50.140;18.990;2023-03-18T03:21:24;98641.44;;;1.78;47.75
39491;BME280;25175;50.140;18.990;2023-03-18T03:24:29;98637.53;;;1.74;47.96
39491;BME280;25175;50.140;18.990;2023-03-18T03:27:34;98640.38;;;1.71;47.95
39491;BME280;25175;50.140;18.990;2023-03-18T03:30:42;98638.78;;;1.70;47.94
39491;BME280;25175;50.140;18.990;2023-03-18T03:33:53;98644.78;;;1.70;48.06
39491;BME280;25175;50.140;18.990;2023-03-18T03:36:58;98648.84;;;1.73;48.24
39491;BME280;25175;50.140;18.990;2023-03-18T03:40:04;98638.63;;;1.71;48.07
39491;BME280;25175;50.140;18.990;2023-03-18T03:43:11;98617.13;;;1.53;48.36
39491;BME280;25175;50.140;18.990;2023-03-18T03:46:19;98638.25;;;1.66;48.57
39491;BME280;25175;50.140;18.990;2023-03-18T03:49:24;98637.09;;;1.61;48.55
39491;BME280;25175;50.140;18.990;2023-03-18T03:52:29;98644.16;;;1.59;48.55
39491;BME280;25175;50.140;18.990;2023-03-18T03:55:33;98645.13;;;1.58;48.40
39491;BME280;25175;50.140;18.990;2023-03-18T03:58:39;98648.69;;;1.57;48.43
39491;BME280;25175;50.140;18.990;2023-03-18T04:01:46;98640.31;;;1.45;48.49
39491;BME280;25175;50.140;18.990;2023-03-18T04:04:52;98645.19;;;1.48;48.49
39491;BME280;25175;50.140;18.990;2023-03-18T04:08:02;98462.06;;;0.39;48.38
39491;BME280;25175;50.140;18.990;2023-03-18T04:11:10;98638.25;;;1.49;48.36
39491;BME280;25175;50.140;18.990;2023-03-18T04:14:16;98652.38;;;1.54;48.10
39491;BME280;25175;50.140;18.990;2023-03-18T04:17:27;98648.16;;;1.53;48.17
39491;BME280;25175;50.140;18.990;2023-03-18T04:20:33;98657.81;;;1.51;48.22
39491;BME280;25175;50.140;18.990;2023-03-18T04:23:43;98663.88;;;1.42;48.37
39491;BME280;25175;50.140;18.990;2023-03-18T04:26:48;98649.34;;;1.32;48.80
39491;BME280;25175;50.140;18.990;2023-03-18T04:29:53;98652.00;;;1.22;48.78
39491;BME280;25175;50.140;18.990;2023-03-18T04:33:08;98648.81;;;1.11;49.16
39491;BME280;25175;50.140;18.990;2023-03-18T04:36:15;98651.94;;;1.05;49.58
39491;BME280;25175;50.140;18.990;2023-03-18T04:39:20;98666.00;;;0.93;49.94
39491;BME280;25175;50.140;18.990;2023-03-18T04:42:25;98647.53;;;0.97;49.84
39491;BME280;25175;50.140;18.990;2023-03-18T04:45:30;98638.13;;;0.96;49.88
39491;BME280;25175;50.140;18.990;2023-03-18T04:48:40;98652.81;;;0.96;49.75
39491;BME280;25175;50.140;18.990;2023-03-18T04:51:45;98650.50;;;0.93;49.85
39491;BME280;25175;50.140;18.990;2023-03-18T04:54:58;98651.22;;;0.85;50.16
39491;BME280;25175;50.140;18.990;2023-03-18T04:58:04;98655.88;;;0.82;50.12
39491;BME280;25175;50.140;18.990;2023-03-18T05:01:14;98658.31;;;0.83;50.25
39491;BME280;25175;50.140;18.990;2023-03-18T05:04:21;98646.06;;;0.85;50.20
39491;BME280;25175;50.140;18.990;2023-03-18T05:07:28;98651.91;;;0.87;50.36
39491;BME280;25175;50.140;18.990;2023-03-18T05:10:40;98657.22;;;0.86;50.15
39491;BME280;25175;50.140;18.990;2023-03-18T05:13:48;98664.53;;;0.90;50.38
39491;BME280;25175;50.140;18.990;2023-03-18T05:16:54;98658.44;;;0.91;50.34
39491;BME280;25175;50.140;18.990;2023-03-18T05:20:03;98663.28;;;0.94;50.29
39491;BME280;25175;50.140;18.990;2023-03-18T05:23:08;98635.38;;;0.80;50.27
39491;BME280;25175;50.140;18.990;2023-03-18T05:26:23;98667.50;;;0.95;50.26
39491;BME280;25175;50.140;18.990;2023-03-18T05:29:27;98656.38;;;0.85;50.47
39491;BME280;25175;50.140;18.990;2023-03-18T05:32:55;98668.84;;;0.99;50.51
39491;BME280;25175;50.140;18.990;2023-03-18T05:36:15;98678.34;;;0.99;50.46
39491;BME280;25175;50.140;18.990;2023-03-18T05:39:33;98554.47;;;0.26;50.50
39491;BME280;25175;50.140;18.990;2023-03-18T05:42:46;98676.16;;;1.04;50.86
39491;BME280;25175;50.140;18.990;2023-03-18T05:45:52;98662.13;;;0.89;50.42
39491;BME280;25175;50.140;18.990;2023-03-18T05:49:07;98678.16;;;1.10;50.48
39491;BME280;25175;50.140;18.990;2023-03-18T05:52:35;98557.00;;;0.35;50.44
39491;BME280;25175;50.140;18.990;2023-03-18T05:55:48;98683.19;;;1.11;50.58
39491;BME280;25175;50.140;18.990;2023-03-18T05:58:53;98544.84;;;0.28;50.91
39491;BME280;25175;50.140;18.990;2023-03-18T06:02:35;98687.00;;;1.17;50.50
39491;BME280;25175;50.140;18.990;2023-03-18T06:05:41;98698.06;;;1.27;50.63
39491;BME280;25175;50.140;18.990;2023-03-18T06:08:48;98697.66;;;1.31;50.29
39491;BME280;25175;50.140;18.990;2023-03-18T06:11:54;98705.63;;;1.38;50.24
39491;BME280;25175;50.140;18.990;2023-03-18T06:14:59;98691.50;;;1.42;50.24
39491;BME280;25175;50.140;18.990;2023-03-18T06:18:07;98703.84;;;1.48;50.22
39491;BME280;25175;50.140;18.990;2023-03-18T06:21:11;98692.25;;;1.52;50.23
39491;BME280;25175;50.140;18.990;2023-03-18T06:24:19;98693.59;;;1.56;49.92
39491;BME280;25175;50.140;18.990;2023-03-18T06:27:24;98694.91;;;1.60;49.75
39491;BME280;25175;50.140;18.990;2023-03-18T06:30:32;98704.00;;;1.64;49.67
39491;BME280;25175;50.140;18.990;2023-03-18T06:33:38;98703.88;;;1.65;49.44
39491;BME280;25175;50.140;18.990;2023-03-18T06:36:46;98706.31;;;1.67;49.39
39491;BME280;25175;50.140;18.990;2023-03-18T06:39:56;98704.91;;;1.72;49.53
39491;BME280;25175;50.140;18.990;2023-03-18T06:43:02;98706.13;;;1.78;49.79
39491;BME280;25175;50.140;18.990;2023-03-18T06:46:10;98708.91;;;1.84;49.71
39491;BME280;25175;50.140;18.990;2023-03-18T06:49:18;98679.19;;;1.71;49.57
39491;BME280;25175;50.140;18.990;2023-03-18T06:52:30;98721.63;;;1.95;49.36
39491;BME280;25175;50.140;18.990;2023-03-18T06:55:46;98736.41;;;2.03;49.25
39491;BME280;25175;50.140;18.990;2023-03-18T06:58:53;98728.22;;;2.07;49.25
39491;BME280;25175;50.140;18.990;2023-03-18T07:01:59;98727.78;;;2.12;49.32
39491;BME280;25175;50.140;18.990;2023-03-18T07:05:04;98722.28;;;2.15;49.38
39491;BME280;25175;50.140;18.990;2023-03-18T07:08:11;98729.25;;;2.32;49.63
39491;BME280;25175;50.140;18.990;2023-03-18T07:11:19;98737.72;;;2.42;49.47
39491;BME280;25175;50.140;18.990;2023-03-18T07:14:26;98738.06;;;2.47;49.11
39491;BME280;25175;50.140;18.990;2023-03-18T07:17:32;98720.28;;;2.44;49.50
39491;BME280;25175;50.140;18.990;2023-03-18T07:20:38;98744.22;;;2.63;49.38
39491;BME280;25175;50.140;18.990;2023-03-18T07:23:43;98747.50;;;2.73;48.99
39491;BME280;25175;50.140;18.990;2023-03-18T07:26:51;98747.69;;;2.80;48.67
39491;BME280;25175;50.140;18.990;2023-03-18T07:29:56;98740.78;;;2.88;49.03
39491;BME280;25175;50.140;18.990;2023-03-18T07:33:01;98748.63;;;2.96;48.39
39491;BME280;25175;50.140;18.990;2023-03-18T07:36:07;98740.72;;;3.06;48.35
39491;BME280;25175;50.140;18.990;2023-03-18T07:39:12;98748.25;;;3.17;48.26
39491;BME280;25175;50.140;18.990;2023-03-18T07:42:22;98743.28;;;3.31;48.07
39491;BME280;25175;50.140;18.990;2023-03-18T07:45:27;98733.13;;;3.46;48.05
39491;BME280;25175;50.140;18.990;2023-03-18T07:48:32;98749.22;;;3.57;47.88
39491;BME280;25175;50.140;18.990;2023-03-18T07:51:37;98742.78;;;3.69;47.50
39491;BME280;25175;50.140;18.990;2023-03-18T07:54:42;98728.41;;;3.83;47.90
39491;BME280;25175;50.140;18.990;2023-03-18T07:57:49;98729.22;;;3.83;46.87
39491;BME280;25175;50.140;18.990;2023-03-18T08:00:54;98725.84;;;4.07;46.93
39491;BME280;25175;50.140;18.990;2023-03-18T08:04:00;98736.41;;;4.21;46.23
39491;BME280;25175;50.140;18.990;2023-03-18T08:07:06;98734.63;;;4.30;46.55
39491;BME280;25175;50.140;18.990;2023-03-18T08:10:11;98725.06;;;4.38;46.09
39491;BME280;25175;50.140;18.990;2023-03-18T08:13:19;98643.06;;;3.96;45.23
39491;BME280;25175;50.140;18.990;2023-03-18T08:16:24;98740.63;;;4.62;45.97
39491;BME280;25175;50.140;18.990;2023-03-18T08:19:29;98739.47;;;4.73;45.49
39491;BME280;25175;50.140;18.990;2023-03-18T08:22:35;98738.16;;;4.93;45.13
39491;BME280;25175;50.140;18.990;2023-03-18T08:25:40;98728.38;;;5.03;44.68
39491;BME280;25175;50.140;18.990;2023-03-18T08:28:48;98569.41;;;4.21;44.66
39491;BME280;25175;50.140;18.990;2023-03-18T08:31:52;98718.72;;;5.19;44.28
39491;BME280;25175;50.140;18.990;2023-03-18T08:34:58;98730.16;;;5.49;44.83
39491;BME280;25175;50.140;18.990;2023-03-18T08:38:03;98721.31;;;5.66;44.35
39491;BME280;25175;50.140;18.990;2023-03-18T08:41:09;98726.25;;;5.83;44.14
39491;BME280;25175;50.140;18.990;2023-03-18T08:44:17;98723.44;;;5.93;44.00
39491;BME280;25175;50.140;18.990;2023-03-18T08:47:22;98725.75;;;6.10;43.78
39491;BME280;25175;50.140;18.990;2023-03-18T08:50:29;98723.84;;;6.27;43.38
39491;BME280;25175;50.140;18.990;2023-03-18T08:53:34;98561.69;;;5.43;43.38
39491;BME280;25175;50.140;18.990;2023-03-18T08:56:40;98723.75;;;6.57;41.80
39491;BME280;25175;50.140;18.990;2023-03-18T08:59:48;98728.34;;;6.70;42.04
39491;BME280;25175;50.140;18.990;2023-03-18T09:02:53;98719.56;;;6.85;42.13
39491;BME280;25175;50.140;18.990;2023-03-18T09:05:58;98693.47;;;6.85;41.08
39491;BME280;25175;50.140;18.990;2023-03-18T09:09:03;98719.59;;;7.14;40.54
39491;BME280;25175;50.140;18.990;2023-03-18T09:12:09;98711.63;;;7.30;40.26
39491;BME280;25175;50.140;18.990;2023-03-18T09:15:17;98708.44;;;7.49;40.21
39491;BME280;25175;50.140;18.990;2023-03-18T09:18:23;98711.41;;;7.61;39.30
39491;BME280;25175;50.140;18.990;2023-03-18T09:21:28;98698.91;;;7.77;39.77
39491;BME280;25175;50.140;18.990;2023-03-18T09:24:33;98703.72;;;7.95;39.88
39491;BME280;25175;50.140;18.990;2023-03-18T09:27:38;98696.00;;;8.08;39.11
39491;BME280;25175;50.140;18.990;2023-03-18T09:30:46;98667.16;;;7.95;38.64
39491;BME280;25175;50.140;18.990;2023-03-18T09:33:50;98680.06;;;8.24;39.06
39491;BME280;25175;50.140;18.990;2023-03-18T09:36:57;98676.81;;;8.43;39.28
39491;BME280;25175;50.140;18.990;2023-03-18T09:40:01;98677.19;;;8.61;38.88
39491;BME280;25175;50.140;18.990;2023-03-18T09:43:27;98678.63;;;8.70;37.94
39491;BME280;25175;50.140;18.990;2023-03-18T09:47:12;98684.69;;;8.98;38.39
39491;BME280;25175;50.140;18.990;2023-03-18T09:50:38;98676.72;;;9.19;38.20
39491;BME280;25175;50.140;18.990;2023-03-18T09:53:54;98687.50;;;9.37;37.54
39491;BME280;25175;50.140;18.990;2023-03-18T09:57:13;98670.66;;;9.59;36.81
39491;BME280;25175;50.140;18.990;2023-03-18T10:00:28;98673.97;;;9.80;37.19
39491;BME280;25175;50.140;18.990;2023-03-18T10:03:44;98678.22;;;10.01;36.52
39491;BME280;25175;50.140;18.990;2023-03-18T10:07:03;98669.78;;;10.18;35.82
39491;BME280;25175;50.140;18.990;2023-03-18T10:10:23;98668.78;;;10.39;35.61
39491;BME280;25175;50.140;18.990;2023-03-18T10:13:36;98673.81;;;10.60;35.13
39491;BME280;25175;50.140;18.990;2023-03-18T10:17:00;98639.50;;;10.68;34.72
39491;BME280;25175;50.140;18.990;2023-03-18T10:20:24;98665.47;;;11.08;34.07
39491;BME280;25175;50.140;18.990;2023-03-18T10:23:44;98665.22;;;11.29;34.28
39491;BME280;25175;50.140;18.990;2023-03-18T10:27:02;98654.63;;;11.49;32.20
39491;BME280;25175;50.140;18.990;2023-03-18T10:30:31;98516.50;;;10.84;27.04
39491;BME280;25175;50.140;18.990;2023-03-18T10:33:53;98645.78;;;11.74;25.41
39491;BME280;25175;50.140;18.990;2023-03-18T10:37:17;98646.97;;;11.85;26.54
39491;BME280;25175;50.140;18.990;2023-03-18T10:40:33;98639.59;;;12.00;25.87
39491;BME280;25175;50.140;18.990;2023-03-18T10:43:41;98644.41;;;12.09;25.60
39491;BME280;25175;50.140;18.990;2023-03-18T10:46:56;98640.25;;;12.20;25.46
39491;BME280;25175;50.140;18.990;2023-03-18T10:50:16;98631.94;;;12.23;25.32
39491;BME280;25175;50.140;18.990;2023-03-18T10:53:47;98648.81;;;12.40;25.87
39491;BME280;25175;50.140;18.990;2023-03-18T10:57:00;98636.97;;;12.49;25.10
39491;BME280;25175;50.140;18.990;2023-03-18T11:00:22;98645.84;;;12.54;24.06
39491;BME280;25175;50.140;18.990;2023-03-18T11:03:37;98637.13;;;12.54;24.43
39491;BME280;25175;50.140;18.990;2023-03-18T11:06:50;98636.56;;;12.52;23.79
39491;BME280;25175;50.140;18.990;2023-03-18T11:10:16;98637.78;;;12.49;24.80
39491;BME280;25175;50.140;18.990;2023-03-18T11:13:27;98638.75;;;12.55;24.54
39491;BME280;25175;50.140;18.990;2023-03-18T11:16:38;98634.13;;;12.50;24.57
39491;BME280;25175;50.140;18.990;2023-03-18T11:19:46;98630.91;;;12.48;24.85
39491;BME280;25175;50.140;18.990;2023-03-18T11:22:52;98627.84;;;12.51;25.09
39491;BME280;25175;50.140;18.990;2023-03-18T11:26:01;98625.56;;;12.55;25.64
39491;BME280;25175;50.140;18.990;2023-03-18T11:29:19;98621.06;;;12.62;26.07
39491;BME280;25175;50.140;18.990;2023-03-18T11:32:28;98628.69;;;12.70;25.32
39491;BME280;25175;50.140;18.990;2023-03-18T11:35:39;98615.88;;;12.73;26.02
39491;BME280;25175;50.140;18.990;2023-03-18T11:38:56;98612.72;;;12.83;25.11
39491;BME280;25175;50.140;18.990;2023-03-18T11:42:16;98611.00;;;12.95;25.45
39491;BME280;25175;50.140;18.990;2023-03-18T11:45:41;98607.66;;;13.06;26.01
39491;BME280;25175;50.140;18.990;2023-03-18T11:48:53;98604.03;;;13.18;24.27
39491;BME280;25175;50.140;18.990;2023-03-18T11:52:09;98583.94;;;13.24;24.23
39491;BME280;25175;50.140;18.990;2023-03-18T11:55:40;98591.09;;;13.35;23.94
39491;BME280;25175;50.140;18.990;2023-03-18T12:02:58;98585.19;;;13.51;24.21
39491;BME280;25175;50.140;18.990;2023-03-18T12:06:26;98580.19;;;13.61;23.61
39491;BME280;25175;50.140;18.990;2023-03-18T12:09:43;98574.78;;;13.67;23.24
39491;BME280;25175;50.140;18.990;2023-03-18T12:13:12;98548.53;;;13.61;23.71
39491;BME280;25175;50.140;18.990;2023-03-18T12:16:50;98562.84;;;13.94;22.24
39491;BME280;25175;50.140;18.990;2023-03-18T12:20:28;98555.63;;;14.01;22.41
39491;BME280;25175;50.140;18.990;2023-03-18T12:23:55;98542.94;;;14.10;22.78
39491;BME280;25175;50.140;18.990;2023-03-18T12:27:18;98564.94;;;14.38;22.11
39491;BME280;25175;50.140;18.990;2023-03-18T12:30:41;98563.69;;;14.52;21.80
39491;BME280;25175;50.140;18.990;2023-03-18T12:34:01;98555.72;;;14.63;22.06
39491;BME280;25175;50.140;18.990;2023-03-18T12:37:23;98565.72;;;14.73;21.67
39491;BME280;25175;50.140;18.990;2023-03-18T12:40:48;98559.53;;;14.79;21.57
39491;BME280;25175;50.140;18.990;2023-03-18T12:44:18;98545.97;;;14.76;20.83
39491;BME280;25175;50.140;18.990;2023-03-18T12:47:37;98550.09;;;14.83;20.81
39491;BME280;25175;50.140;18.990;2023-03-18T12:50:55;98547.00;;;14.86;21.11
39491;BME280;25175;50.140;18.990;2023-03-18T12:54:13;98538.53;;;14.84;21.24
39491;BME280;25175;50.140;18.990;2023-03-18T12:57:33;98545.19;;;14.87;21.10
39491;BME280;25175;50.140;18.990;2023-03-18T13:00:49;98539.63;;;14.88;21.02
39491;BME280;25175;50.140;18.990;2023-03-18T13:04:13;98542.75;;;14.85;21.13
39491;BME280;25175;50.140;18.990;2023-03-18T13:07:35;98542.53;;;14.87;20.81
39491;BME280;25175;50.140;18.990;2023-03-18T13:10:56;98546.28;;;14.91;20.87
39491;BME280;25175;50.140;18.990;2023-03-18T13:14:16;98533.78;;;14.86;20.74
39491;BME280;25175;50.140;18.990;2023-03-18T13:17:31;98527.97;;;14.84;20.82
39491;BME280;25175;50.140;18.990;2023-03-18T13:20:41;98538.59;;;14.89;20.59
39491;BME280;25175;50.140;18.990;2023-03-18T13:24:20;98535.28;;;14.94;21.32
39491;BME280;25175;50.140;18.990;2023-03-18T13:27:55;98536.88;;;14.95;20.55
39491;BME280;25175;50.140;18.990;2023-03-18T13:31:21;98525.25;;;14.96;20.83
39491;BME280;25175;50.140;18.990;2023-03-18T13:34:55;98537.91;;;14.94;20.52
39491;BME280;25175;50.140;18.990;2023-03-18T13:38:40;98527.34;;;14.94;20.62
39491;BME280;25175;50.140;18.990;2023-03-18T13:42:22;98529.22;;;14.82;20.63
39491;BME280;25175;50.140;18.990;2023-03-18T13:45:36;98524.25;;;14.73;20.50
39491;BME280;25175;50.140;18.990;2023-03-18T13:48:41;98518.97;;;14.73;21.30
39491;BME280;25175;50.140;18.990;2023-03-18T13:51:50;98519.19;;;14.72;20.99
39491;BME280;25175;50.140;18.990;2023-03-18T13:55:05;98514.72;;;14.73;21.21
39491;BME280;25175;50.140;18.990;2023-03-18T13:58:24;98512.91;;;14.73;20.81
39491;BME280;25175;50.140;18.990;2023-03-18T14:01:30;98514.16;;;14.82;21.68
39491;BME280;25175;50.140;18.990;2023-03-18T14:04:45;98502.19;;;14.91;20.90
39491;BME280;25175;50.140;18.990;2023-03-18T14:07:54;98503.06;;;14.97;21.59
39491;BME280;25175;50.140;18.990;2023-03-18T14:11:35;98501.13;;;15.04;21.14
39491;BME280;25175;50.140;18.990;2023-03-18T14:15:02;98487.56;;;15.00;20.98
39491;BME280;25175;50.140;18.990;2023-03-18T14:18:22;98492.59;;;15.02;20.65
39491;BME280;25175;50.140;18.990;2023-03-18T14:21:32;98470.72;;;14.90;20.56
39491;BME280;25175;50.140;18.990;2023-03-18T14:25:07;98482.63;;;15.04;20.22
39491;BME280;25175;50.140;18.990;2023-03-18T14:28:23;98487.56;;;15.00;19.95
39491;BME280;25175;50.140;18.990;2023-03-18T14:31:49;98492.19;;;14.93;20.35
39491;BME280;25175;50.140;18.990;2023-03-18T14:34:59;98483.69;;;14.91;20.32
39491;BME280;25175;50.140;18.990;2023-03-18T14:38:14;98487.00;;;14.98;20.79
39491;BME280;25175;50.140;18.990;2023-03-18T14:41:27;98482.03;;;15.02;20.35
39491;BME280;25175;50.140;18.990;2023-03-18T14:44:42;98457.84;;;14.93;20.79
39491;BME280;25175;50.140;18.990;2023-03-18T14:47:57;98479.13;;;15.15;20.86
39491;BME280;25175;50.140;18.990;2023-03-18T14:51:08;98476.13;;;15.11;20.28
39491;BME280;25175;50.140;18.990;2023-03-18T14:54:20;98474.41;;;15.17;20.62
39491;BME280;25175;50.140;18.990;2023-03-18T14:57:31;98482.31;;;15.17;19.90
39491;BME280;25175;50.140;18.990;2023-03-18T15:00:36;98473.25;;;15.13;20.35
39491;BME280;25175;50.140;18.990;2023-03-18T15:03:46;98449.69;;;14.95;20.31
39491;BME280;25175;50.140;18.990;2023-03-18T15:07:00;98475.13;;;15.12;20.07
39491;BME280;25175;50.140;18.990;2023-03-18T15:10:14;98479.03;;;15.10;20.24
39491;BME280;25175;50.140;18.990;2023-03-18T15:13:25;98473.66;;;15.05;20.19
39491;BME280;25175;50.140;18.990;2023-03-18T15:16:30;98477.78;;;15.01;20.44
39491;BME280;25175;50.140;18.990;2023-03-18T15:19:39;98479.28;;;14.97;20.53
39491;BME280;25175;50.140;18.990;2023-03-18T15:22:44;98478.28;;;14.98;20.91
39491;BME280;25175;50.140;18.990;2023-03-18T15:25:52;98455.03;;;14.72;20.50
39491;BME280;25175;50.140;18.990;2023-03-18T15:29:00;98472.00;;;14.76;20.73
39491;BME280;25175;50.140;18.990;2023-03-18T15:32:27;98481.53;;;14.77;20.24
39491;BME280;25175;50.140;18.990;2023-03-18T15:35:36;98489.25;;;14.67;20.77
39491;BME280;25175;50.140;18.990;2023-03-18T15:38:46;98495.13;;;14.57;20.62
39491;BME280;25175;50.140;18.990;2023-03-18T15:41:54;98494.44;;;14.50;20.71
39491;BME280;25175;50.140;18.990;2023-03-18T15:45:04;98485.84;;;14.43;20.82
39491;BME280;25175;50.140;18.990;2023-03-18T15:48:20;98492.41;;;14.41;20.86
39491;BME280;25175;50.140;18.990;2023-03-18T15:51:33;98491.03;;;14.38;20.97
39491;BME280;25175;50.140;18.990;2023-03-18T15:54:41;98494.59;;;14.32;20.54
39491;BME280;25175;50.140;18.990;2023-03-18T15:57:45;98509.75;;;14.25;20.93
39491;BME280;25175;50.140;18.990;2023-03-18T16:00:53;98499.31;;;14.19;20.72
39491;BME280;25175;50.140;18.990;2023-03-18T16:03:59;98512.59;;;14.12;21.04
39491;BME280;25175;50.140;18.990;2023-03-18T16:07:15;98510.09;;;14.06;21.11
39491;BME280;25175;50.140;18.990;2023-03-18T16:10:23;98511.81;;;14.00;21.11
39491;BME280;25175;50.140;18.990;2023-03-18T16:13:33;98514.09;;;13.97;21.58
39491;BME280;25175;50.140;18.990;2023-03-18T16:16:40;98508.09;;;13.90;21.73
39491;BME280;25175;50.140;18.990;2023-03-18T16:19:45;98510.63;;;13.85;21.66
39491;BME280;25175;50.140;18.990;2023-03-18T16:22:56;98523.00;;;13.84;22.00
39491;BME280;25175;50.140;18.990;2023-03-18T16:26:02;98523.81;;;13.85;22.19
39491;BME280;25175;50.140;18.990;2023-03-18T16:29:26;98517.13;;;13.71;22.70
39491;BME280;25175;50.140;18.990;2023-03-18T16:32:33;98531.72;;;13.85;23.13
39491;BME280;25175;50.140;18.990;2023-03-18T16:35:38;98533.53;;;13.84;23.33
39491;BME280;25175;50.140;18.990;2023-03-18T16:38:47;98537.34;;;13.88;23.91
39491;BME280;25175;50.140;18.990;2023-03-18T16:41:52;98515.09;;;13.73;24.40
39491;BME280;25175;50.140;18.990;2023-03-18T16:44:57;98535.75;;;13.87;24.56
39491;BME280;25175;50.140;18.990;2023-03-18T16:48:06;98541.94;;;13.81;24.01
39491;BME280;25175;50.140;18.990;2023-03-18T16:51:16;98533.53;;;13.73;23.72
39491;BME280;25175;50.140;18.990;2023-03-18T16:54:25;98529.50;;;13.59;23.35
39491;BME280;25175;50.140;18.990;2023-03-18T16:57:35;98541.97;;;13.52;23.32